Time;durP1;ratioP1;P1;durP2;ratioP2;P2;SDS_P1;SDS_P2;PMS_P1;PMS_P2;Temp;Humidity;BMP_temperature;BMP_pressure;BME280_temperature;BME280_humidity;BME280_pressure;Samples;Min_cycle;Max_cycle;Signal;HPM_P1;HPM_P2
2022/07/08 00:00:35;;;;;;;15.60;3.45;;;16.00;99.90;;;;;;5072187;28;20437;-75
2022/07/08 00:03:01;;;;;;;14.25;3.33;;;16.00;99.90;;;;;;5072380;28;20044;-75
2022/07/08 00:05:27;;;;;;;17.90;3.42;;;15.90;99.90;;;;;;5073620;28;20029;-75
2022/07/08 00:07:52;;;;;;;12.82;3.15;;;15.60;99.90;;;;;;5073496;28;20031;-74
2022/07/08 00:10:21;;;;;;;14.00;3.35;;;15.40;99.90;;;;;;5073641;28;20477;-74
2022/07/08 00:12:47;;;;;;;13.02;2.92;;;15.30;99.90;;;;;;5073600;28;20009;-75
2022/07/08 00:15:13;;;;;;;16.63;3.38;;;15.40;99.90;;;;;;5073192;28;20055;-75
2022/07/08 00:17:39;;;;;;;14.13;3.50;;;15.50;99.90;;;;;;5073459;28;20489;-74
2022/07/08 00:20:06;;;;;;;21.17;3.92;;;15.40;99.90;;;;;;5073687;28;20028;-77
2022/07/08 00:22:33;;;;;;;22.63;3.65;;;15.40;99.90;;;;;;5073222;28;20040;-74
2022/07/08 00:24:59;;;;;;;16.92;3.60;;;15.30;99.90;;;;;;5073553;28;20035;-74
2022/07/08 00:27:25;;;;;;;12.73;2.83;;;15.30;99.90;;;;;;5072057;28;20021;-74
2022/07/08 00:29:51;;;;;;;15.10;3.10;;;15.20;99.90;;;;;;5072957;28;20138;-74
2022/07/08 00:32:18;;;;;;;12.38;3.45;;;15.20;99.90;;;;;;5072003;28;20028;-74
2022/07/08 00:34:44;;;;;;;15.52;3.08;;;15.00;99.90;;;;;;5073305;28;20030;-75
2022/07/08 00:37:10;;;;;;;16.52;3.38;;;15.00;99.90;;;;;;5073333;28;20119;-74
2022/07/08 00:39:37;;;;;;;15.73;2.83;;;15.00;99.90;;;;;;5072944;28;20417;-74
2022/07/08 00:42:03;;;;;;;13.45;3.30;;;15.10;99.90;;;;;;5073324;28;20435;-74
2022/07/08 00:44:29;;;;;;;19.52;3.78;;;15.30;99.90;;;;;;5072910;28;20025;-74
2022/07/08 00:46:55;;;;;;;20.65;3.67;;;15.30;99.90;;;;;;5059029;28;20108;-74
2022/07/08 00:49:20;;;;;;;12.55;3.45;;;15.20;99.90;;;;;;5072727;28;20086;-74
2022/07/08 00:51:48;;;;;;;18.92;3.70;;;15.30;99.90;;;;;;5073158;28;20064;-74
2022/07/08 00:54:16;;;;;;;13.85;3.40;;;15.50;99.90;;;;;;5072928;28;20036;-74
2022/07/08 00:56:42;;;;;;;10.77;2.80;;;15.50;99.90;;;;;;5072572;28;20033;-74
2022/07/08 00:59:09;;;;;;;16.45;2.97;;;15.50;99.90;;;;;;5072322;28;20012;-75
2022/07/08 01:01:35;;;;;;;11.05;3.13;;;15.50;99.90;;;;;;5071752;28;20020;-74
2022/07/08 01:04:01;;;;;;;13.02;3.70;;;15.80;99.90;;;;;;5072821;28;20037;-74
2022/07/08 01:06:27;;;;;;;9.85;3.25;;;15.90;99.90;;;;;;5072627;28;20036;-74
2022/07/08 01:08:53;;;;;;;23.75;3.67;;;15.40;99.90;;;;;;5072345;28;20491;-74
2022/07/08 01:11:19;;;;;;;13.35;3.05;;;14.70;99.90;;;;;;5071561;28;20455;-74
2022/07/08 01:13:46;;;;;;;15.57;3.65;;;14.20;99.90;;;;;;5072494;28;20120;-74
2022/07/08 01:16:12;;;;;;;12.38;2.85;;;14.00;99.90;;;;;;5072828;28;20021;-74
2022/07/08 01:18:40;;;;;;;13.25;2.83;;;13.80;99.90;;;;;;5072714;28;20020;-74
2022/07/08 01:21:06;;;;;;;16.80;3.20;;;13.90;99.90;;;;;;5072556;28;20013;-74
2022/07/08 01:23:32;;;;;;;9.85;2.90;;;14.30;99.90;;;;;;5072635;28;20032;-74
2022/07/08 01:25:59;;;;;;;10.80;3.13;;;14.20;99.90;;;;;;5072568;28;20086;-74
2022/07/08 01:28:25;;;;;;;15.73;3.38;;;14.40;99.90;;;;;;5064464;28;20029;-75
2022/07/08 01:30:51;;;;;;;16.42;3.13;;;14.40;99.90;;;;;;5051469;28;20047;-74
2022/07/08 01:33:17;;;;;;;10.90;3.30;;;14.30;99.90;;;;;;5055698;28;20092;-74
2022/07/08 01:35:42;;;;;;;18.17;3.33;;;14.30;99.90;;;;;;5062864;28;20037;-74
2022/07/08 01:38:08;;;;;;;23.42;3.50;;;14.70;99.90;;;;;;5062045;28;20029;-74
2022/07/08 01:40:34;;;;;;;12.65;3.47;;;14.70;99.90;;;;;;5068894;28;20103;-74
2022/07/08 01:43:00;;;;;;;13.40;3.00;;;15.10;99.90;;;;;;5072353;28;20059;-74
2022/07/08 01:45:26;;;;;;;13.73;2.75;;;15.10;99.90;;;;;;5072011;28;20052;-74
2022/07/08 01:47:51;;;;;;;18.55;2.90;;;15.00;99.90;;;;;;5057750;28;20075;-74
2022/07/08 01:50:17;;;;;;;12.80;2.97;;;14.90;99.90;;;;;;5072211;28;20064;-74
2022/07/08 01:52:43;;;;;;;18.77;3.63;;;15.00;99.90;;;;;;5072348;28;20491;-74
2022/07/08 01:55:09;;;;;;;10.25;3.05;;;14.80;99.90;;;;;;5072277;28;20116;-74
2022/07/08 01:57:34;;;;;;;18.08;3.17;;;14.30;99.90;;;;;;5071997;28;20020;-74
2022/07/08 02:00:00;;;;;;;12.13;3.40;;;14.40;99.90;;;;;;5071082;28;20036;-74
2022/07/08 02:02:26;;;;;;;16.08;3.10;;;14.40;99.90;;;;;;5071080;28;20020;-74
2022/07/08 02:04:52;;;;;;;9.43;2.75;;;14.40;99.90;;;;;;5058065;28;20033;-74
2022/07/08 02:07:18;;;;;;;15.23;3.78;;;14.60;99.90;;;;;;5071007;28;20107;-74
2022/07/08 02:09:44;;;;;;;17.08;3.35;;;14.30;99.90;;;;;;5075403;28;20465;-74
2022/07/08 02:12:19;;;;;;;13.10;3.22;;;14.20;99.90;;;;;;5075865;28;20166;-74
2022/07/08 02:14:52;;;;;;;18.13;3.00;;;14.40;99.90;;;;;;5074697;28;20020;-74
2022/07/08 02:17:20;;;;;;;16.25;2.90;;;14.40;99.90;;;;;;5075867;28;20040;-74
2022/07/08 02:19:46;;;;;;;15.20;3.20;;;14.10;99.90;;;;;;5075674;28;20056;-74
2022/07/08 02:22:12;;;;;;;13.63;3.25;;;14.10;99.90;;;;;;5075977;28;20021;-74
2022/07/08 02:24:38;;;;;;;10.70;2.85;;;14.00;99.90;;;;;;5075214;28;20024;-74
2022/07/08 02:27:05;;;;;;;12.93;3.60;;;13.90;99.90;;;;;;5075859;28;20350;-74
2022/07/08 02:29:31;;;;;;;14.20;3.28;;;13.80;99.90;;;;;;5075644;28;20032;-74
2022/07/08 02:31:57;;;;;;;9.75;2.72;;;13.70;99.90;;;;;;5075413;28;20016;-74
2022/07/08 02:34:24;;;;;;;13.25;3.33;;;13.80;99.90;;;;;;5075638;28;20113;-74
2022/07/08 02:36:49;;;;;;;16.00;3.10;;;13.80;99.90;;;;;;5073617;28;20032;-74
2022/07/08 02:39:15;;;;;;;10.35;3.20;;;14.00;99.90;;;;;;5063038;28;20028;-74
2022/07/08 02:41:41;;;;;;;8.93;2.70;;;14.20;99.90;;;;;;5075408;28;20538;-74
2022/07/08 02:44:07;;;;;;;11.02;3.30;;;13.60;99.90;;;;;;5075387;28;20054;-74
2022/07/08 02:46:34;;;;;;;10.90;2.80;;;13.50;99.90;;;;;;5073912;28;20052;-74
2022/07/08 02:49:00;;;;;;;19.00;3.60;;;13.60;99.90;;;;;;5075414;28;20103;-75
2022/07/08 02:51:26;;;;;;;12.27;3.65;;;13.70;99.90;;;;;;5073791;28;20124;-74
2022/07/08 02:53:52;;;;;;;7.82;3.10;;;13.80;99.90;;;;;;5074949;28;20028;-74
2022/07/08 02:56:18;;;;;;;11.48;3.03;;;13.70;99.90;;;;;;5073998;28;20024;-74
2022/07/08 02:58:43;;;;;;;13.00;3.33;;;13.50;99.90;;;;;;5075063;28;20431;-74
2022/07/08 03:01:09;;;;;;;8.65;3.38;;;13.80;99.90;;;;;;5075040;28;20035;-74
2022/07/08 03:03:35;;;;;;;16.00;3.50;;;13.90;99.90;;;;;;5075166;28;20028;-74
2022/07/08 03:06:00;;;;;;;17.95;3.80;;;13.80;99.90;;;;;;5074896;28;20025;-74
2022/07/08 03:08:26;;;;;;;21.17;4.55;;;13.90;99.90;;;;;;5073261;28;20056;-75
2022/07/08 03:10:52;;;;;;;15.70;3.92;;;14.10;99.90;;;;;;5074788;28;20076;-75
2022/07/08 03:13:18;;;;;;;14.32;4.13;;;14.00;99.90;;;;;;5074875;28;20429;-75
2022/07/08 03:15:44;;;;;;;12.32;3.47;;;13.70;99.90;;;;;;5074531;28;20035;-74
2022/07/08 03:18:10;;;;;;;13.27;3.13;;;13.90;99.90;;;;;;5074847;28;20025;-75
2022/07/08 03:20:36;;;;;;;22.65;4.10;;;13.80;99.90;;;;;;5074651;28;20064;-74
2022/07/08 03:23:01;;;;;;;14.32;3.67;;;13.80;99.90;;;;;;5074296;28;20105;-75
2022/07/08 03:25:29;;;;;;;11.35;4.10;;;13.50;99.90;;;;;;5074684;28;20476;-74
2022/07/08 03:27:55;;;;;;;14.77;3.67;;;13.50;99.90;;;;;;5074458;28;20384;-74
2022/07/08 03:30:21;;;;;;;9.57;3.67;;;13.50;99.90;;;;;;5074535;28;20041;-74
2022/07/08 03:32:47;;;;;;;10.65;3.53;;;13.40;99.90;;;;;;5074315;28;20021;-75
2022/07/08 03:35:13;;;;;;;13.77;4.53;;;13.20;99.90;;;;;;5073226;28;20380;-75
2022/07/08 03:37:45;;;;;;;15.43;3.78;;;13.10;99.90;;;;;;5046909;28;20025;-75
2022/07/08 03:42:56;;;;;;;23.10;4.13;;;13.30;99.90;;;;;;5073973;28;20072;-74
2022/07/08 03:45:22;;;;;;;11.50;4.30;;;13.40;99.90;;;;;;5074118;28;20021;-75
2022/07/08 03:47:48;;;;;;;21.20;4.53;;;13.70;99.90;;;;;;5074130;28;20070;-74
2022/07/08 03:50:14;;;;;;;20.73;3.67;;;13.60;99.90;;;;;;5074033;28;20519;-75
2022/07/08 03:52:40;;;;;;;17.35;4.55;;;13.60;99.90;;;;;;5072389;28;20031;-75
2022/07/08 03:55:06;;;;;;;16.98;4.53;;;13.60;99.90;;;;;;5074240;28;20033;-74
2022/07/08 03:57:32;;;;;;;12.88;4.25;;;13.70;99.90;;;;;;5073721;28;20036;-75
2022/07/08 03:59:58;;;;;;;19.25;3.78;;;13.80;99.90;;;;;;5074116;28;20472;-75
2022/07/08 04:02:24;;;;;;;16.50;4.20;;;13.60;99.90;;;;;;5073593;28;20036;-75
2022/07/08 04:04:50;;;;;;;18.30;4.10;;;13.70;99.90;;;;;;5072755;28;20100;-75
2022/07/08 04:07:16;;;;;;;24.10;5.35;;;13.70;99.90;;;;;;5073363;28;20029;-74
2022/07/08 04:09:42;;;;;;;14.57;3.95;;;13.60;99.90;;;;;;5073132;28;20477;-74
2022/07/08 04:12:08;;;;;;;20.55;4.25;;;13.80;99.90;;;;;;5073812;28;20036;-74
2022/07/08 04:14:34;;;;;;;15.60;4.32;;;14.00;99.90;;;;;;5072349;28;20028;-74
2022/07/08 04:17:00;;;;;;;17.20;4.50;;;14.00;99.90;;;;;;5073491;28;20400;-74
2022/07/08 04:19:26;;;;;;;21.15;4.40;;;14.00;99.90;;;;;;5073355;28;20017;-74
2022/07/08 04:21:51;;;;;;;17.05;4.57;;;14.00;99.90;;;;;;5073219;28;20070;-74
2022/07/08 04:24:17;;;;;;;22.10;5.55;;;14.00;99.90;;;;;;5072167;28;20376;-74
2022/07/08 04:26:43;;;;;;;23.55;4.70;;;13.90;99.90;;;;;;5073423;28;20056;-74
2022/07/08 04:29:09;;;;;;;18.45;4.38;;;13.80;99.90;;;;;;5073313;28;20028;-74
2022/07/08 04:31:34;;;;;;;17.63;4.32;;;13.60;99.90;;;;;;5072454;28;20025;-74
2022/07/08 04:34:00;;;;;;;16.90;4.68;;;14.00;99.90;;;;;;5072027;28;20123;-74
2022/07/08 04:36:26;;;;;;;19.30;4.65;;;14.20;99.90;;;;;;5072908;28;20048;-74
2022/07/08 04:38:51;;;;;;;11.02;4.00;;;14.00;99.90;;;;;;5041091;28;20032;-75
2022/07/08 04:41:17;;;;;;;18.52;4.20;;;13.90;99.90;;;;;;5073248;28;20086;-74
2022/07/08 04:43:46;;;;;;;15.90;4.30;;;13.80;99.90;;;;;;5072971;28;20024;-74
2022/07/08 04:46:12;;;;;;;15.98;4.43;;;14.00;99.90;;;;;;5055274;28;20101;-74
2022/07/08 04:48:39;;;;;;;16.17;4.47;;;13.90;99.90;;;;;;5072903;28;20024;-75
2022/07/08 04:51:04;;;;;;;18.13;4.78;;;14.10;99.90;;;;;;5072506;28;20036;-74
2022/07/08 04:53:30;;;;;;;22.92;4.65;;;14.10;99.90;;;;;;5071898;28;20089;-74
2022/07/08 04:55:56;;;;;;;15.40;4.55;;;14.00;99.90;;;;;;5073081;28;20415;-74
2022/07/08 04:58:22;;;;;;;16.20;4.38;;;14.10;99.90;;;;;;5072902;28;20040;-74
2022/07/08 05:00:47;;;;;;;18.88;4.78;;;14.20;99.90;;;;;;5072899;28;20492;-75
2022/07/08 05:03:13;;;;;;;20.25;4.75;;;14.40;99.90;;;;;;5072811;28;20020;-75
2022/07/08 05:05:39;;;;;;;23.25;4.20;;;14.50;99.90;;;;;;5072345;28;20495;-75
2022/07/08 05:08:05;;;;;;;15.48;4.45;;;14.50;99.90;;;;;;5072608;28;20036;-74
2022/07/08 05:10:31;;;;;;;18.58;4.60;;;14.20;99.90;;;;;;5072816;28;20043;-74
2022/07/08 05:12:57;;;;;;;22.23;4.35;;;14.10;99.90;;;;;;5072736;28;20078;-75
2022/07/08 05:15:24;;;;;;;19.77;4.60;;;14.40;99.90;;;;;;5072611;28;20499;-74
2022/07/08 05:17:51;;;;;;;18.48;4.85;;;15.00;99.90;;;;;;5071503;28;20549;-74
2022/07/08 05:20:17;;;;;;;18.95;3.92;;;15.00;99.90;;;;;;5072490;28;20472;-74
2022/07/08 05:22:42;;;;;;;16.27;3.70;;;14.50;99.90;;;;;;5071216;28;20047;-74
2022/07/08 05:25:09;;;;;;;17.88;4.20;;;14.30;99.90;;;;;;5072708;28;20036;-74
2022/07/08 05:27:35;;;;;;;24.27;4.80;;;14.40;99.90;;;;;;5072601;28;20016;-75
2022/07/08 05:30:05;;;;;;;19.00;4.20;;;14.40;99.90;;;;;;5072476;28;20174;-74
2022/07/08 05:32:31;;;;;;;16.88;4.28;;;14.30;99.90;;;;;;5072626;28;20039;-74
2022/07/08 05:34:57;;;;;;;19.63;4.03;;;14.20;99.90;;;;;;5072149;28;20548;-74
2022/07/08 05:37:22;;;;;;;14.45;4.03;;;14.20;99.90;;;;;;5066062;28;20051;-74
2022/07/08 05:39:48;;;;;;;15.00;3.70;;;14.40;99.90;;;;;;5064721;28;20029;-75
2022/07/08 05:42:14;;;;;;;16.15;4.15;;;14.30;99.90;;;;;;5072640;28;20384;-74
2022/07/08 05:44:40;;;;;;;17.00;4.00;;;14.40;99.90;;;;;;5076465;28;20238;-74
2022/07/08 05:47:07;;;;;;;16.50;4.05;;;14.70;99.90;;;;;;5076516;28;20453;-74
2022/07/08 05:49:34;;;;;;;19.77;3.83;;;15.20;99.90;;;;;;5076177;28;20032;-74
2022/07/08 05:52:01;;;;;;;22.77;4.13;;;15.60;99.90;;;;;;5076144;28;20479;-74
2022/07/08 05:54:27;;;;;;;18.48;4.50;;;15.70;99.90;;;;;;5075014;28;20031;-74
2022/07/08 05:56:53;;;;;;;20.92;4.03;;;15.40;99.90;;;;;;5076483;28;20025;-74
2022/07/08 05:59:19;;;;;;;19.00;4.47;;;15.80;99.90;;;;;;5076027;28;20476;-74
2022/07/08 06:01:44;;;;;;;16.75;4.15;;;15.70;99.90;;;;;;5076387;28;20024;-74
2022/07/08 06:04:10;;;;;;;19.02;4.10;;;15.70;99.90;;;;;;5075886;28;20025;-74
2022/07/08 06:06:36;;;;;;;19.90;3.63;;;16.00;99.90;;;;;;5076071;28;20364;-74
2022/07/08 06:09:02;;;;;;;21.88;4.03;;;16.20;99.90;;;;;;5074486;28;20033;-74
2022/07/08 06:11:27;;;;;;;13.00;3.90;;;16.40;99.90;;;;;;5075810;28;20132;-76
2022/07/08 06:13:53;;;;;;;31.92;3.80;;;15.90;99.90;;;;;;5076086;28;20028;-75
2022/07/08 06:16:20;;;;;;;17.42;4.05;;;16.20;99.90;;;;;;5074762;28;20027;-78
2022/07/08 06:18:46;;;;;;;20.30;3.85;;;16.30;99.90;;;;;;5074368;28;20037;-75
2022/07/08 06:21:11;;;;;;;14.32;3.65;;;16.20;99.90;;;;;;5074423;28;20078;-74
2022/07/08 06:23:37;;;;;;;15.57;3.55;;;16.10;99.90;;;;;;5074689;28;20028;-75
2022/07/08 06:26:03;;;;;;;22.02;4.57;;;16.00;99.90;;;;;;5074275;28;20036;-75
2022/07/08 06:28:29;;;;;;;19.92;3.70;;;16.10;99.90;;;;;;5075735;28;20043;-74
2022/07/08 06:30:55;;;;;;;16.00;3.83;;;16.40;99.90;;;;;;5075371;28;20071;-74
2022/07/08 06:33:20;;;;;;;21.13;4.50;;;16.80;99.90;;;;;;5075188;28;20020;-74
2022/07/08 06:35:46;;;;;;;14.07;3.25;;;17.20;99.90;;;;;;5074355;28;20453;-75
2022/07/08 06:38:13;;;;;;;21.58;3.85;;;17.30;99.90;;;;;;5061946;28;20116;-73
2022/07/08 06:40:39;;;;;;;17.42;3.65;;;17.00;99.90;;;;;;5074500;28;20025;-74
2022/07/08 06:43:04;;;;;;;19.17;3.72;;;17.10;99.90;;;;;;5075579;28;20027;-75
2022/07/08 06:45:32;;;;;;;24.75;3.83;;;17.40;99.90;;;;;;5074955;28;20047;-75
2022/07/08 06:47:58;;;;;;;17.75;4.07;;;17.10;99.90;;;;;;5075518;28;20414;-76
2022/07/08 06:50:24;;;;;;;19.60;3.53;;;17.30;99.90;;;;;;5073393;28;20059;-74
2022/07/08 06:52:50;;;;;;;20.35;4.75;;;17.70;99.90;;;;;;5074068;28;20472;-74
2022/07/08 06:55:16;;;;;;;18.52;3.38;;;17.60;99.90;;;;;;5074614;28;20024;-74
2022/07/08 06:57:41;;;;;;;21.33;3.42;;;17.70;99.90;;;;;;5075115;28;20024;-74
2022/07/08 07:00:08;;;;;;;18.13;3.40;;;17.90;99.90;;;;;;5074827;28;20031;-75
2022/07/08 07:02:34;;;;;;;21.20;4.18;;;17.90;99.90;;;;;;5074916;28;20060;-75
2022/07/08 07:05:00;;;;;;;18.85;3.63;;;17.90;99.90;;;;;;5075104;28;20060;-75
2022/07/08 07:07:27;;;;;;;19.30;3.90;;;17.90;99.90;;;;;;5074704;28;20033;-75
2022/07/08 07:09:53;;;;;;;15.10;3.38;;;18.00;99.90;;;;;;5073504;28;20036;-74
2022/07/08 07:12:19;;;;;;;20.20;3.40;;;18.20;99.90;;;;;;5074918;28;20025;-74
2022/07/08 07:14:45;;;;;;;15.68;2.90;;;18.20;99.90;;;;;;5073454;28;20028;-75
2022/07/08 07:17:11;;;;;;;15.43;3.15;;;18.10;99.90;;;;;;5073623;28;20086;-75
2022/07/08 07:19:37;;;;;;;20.58;3.30;;;18.40;99.90;;;;;;5074741;28;20024;-75
2022/07/08 07:22:03;;;;;;;12.63;2.80;;;17.90;99.90;;;;;;5074408;28;20130;-74
2022/07/08 07:24:29;;;;;;;21.90;3.40;;;17.90;99.90;;;;;;5074644;28;20028;-74
2022/07/08 07:26:55;;;;;;;13.73;3.17;;;17.60;99.90;;;;;;5074487;28;20029;-74
2022/07/08 07:29:21;;;;;;;14.40;3.17;;;17.30;99.90;;;;;;5073893;28;20032;-74
2022/07/08 07:31:46;;;;;;;14.75;2.75;;;17.30;99.90;;;;;;5056608;28;20025;-74
2022/07/08 07:34:12;;;;;;;16.67;3.05;;;17.50;99.90;;;;;;5074754;28;20385;-74
2022/07/08 07:36:38;;;;;;;11.13;2.72;;;17.90;99.90;;;;;;5073976;28;20032;-74
2022/07/08 07:39:04;;;;;;;20.88;4.22;;;17.90;99.90;;;;;;5060624;28;20457;-74
2022/07/08 07:41:29;;;;;;;17.60;3.22;;;18.00;99.90;;;;;;5074174;28;20070;-75
2022/07/08 07:43:56;;;;;;;16.98;3.67;;;17.80;99.90;;;;;;5074081;28;20461;-75
2022/07/08 07:46:22;;;;;;;12.48;2.92;;;18.10;99.90;;;;;;5073068;28;20029;-76
2022/07/08 07:48:47;;;;;;;17.45;3.03;;;18.10;99.90;;;;;;5074364;28;20043;-76
2022/07/08 07:51:13;;;;;;;16.65;3.10;;;18.40;99.90;;;;;;5073897;28;20043;-75
2022/07/08 07:53:40;;;;;;;14.80;3.17;;;18.40;99.90;;;;;;5074047;28;20021;-77
2022/07/08 07:56:06;;;;;;;18.67;3.15;;;18.10;99.90;;;;;;5074206;28;20082;-75
2022/07/08 07:58:32;;;;;;;18.50;3.10;;;18.20;99.90;;;;;;5073652;28;20020;-76
2022/07/08 08:00:58;;;;;;;15.40;3.42;;;18.40;99.90;;;;;;5073770;28;20029;-76
2022/07/08 08:03:23;;;;;;;13.85;2.95;;;19.10;99.90;;;;;;5073614;28;20029;-76
2022/07/08 08:05:49;;;;;;;15.40;2.75;;;19.30;99.90;;;;;;5073972;28;20532;-76
2022/07/08 08:08:15;;;;;;;17.05;2.83;;;19.30;99.90;;;;;;5072256;28;20028;-75
2022/07/08 08:10:41;;;;;;;13.60;3.42;;;19.00;99.90;;;;;;5072196;28;20511;-76
2022/07/08 08:13:06;;;;;;;18.85;2.72;;;19.20;99.90;;;;;;5073365;28;20017;-76
2022/07/08 08:15:32;;;;;;;14.75;3.15;;;19.40;99.90;;;;;;5073856;28;20338;-76
2022/07/08 08:17:59;;;;;;;8.73;2.45;;;19.30;99.90;;;;;;5073314;28;20388;-75
2022/07/08 08:20:27;;;;;;;17.73;2.95;;;19.00;99.90;;;;;;5073314;28;20032;-77
2022/07/08 08:22:53;;;;;;;11.98;2.33;;;18.90;99.90;;;;;;5071976;28;20120;-77
2022/07/08 08:25:19;;;;;;;18.58;3.22;;;19.30;99.90;;;;;;5073648;28;20392;-76
2022/07/08 08:27:45;;;;;;;15.15;2.45;;;19.20;99.90;;;;;;5071828;28;20031;-77
2022/07/08 08:30:12;;;;;;;15.73;3.10;;;19.20;99.90;;;;;;5073201;28;20032;-75
2022/07/08 08:32:38;;;;;;;12.20;2.92;;;19.10;99.90;;;;;;5073478;28;20025;-75
2022/07/08 08:35:04;;;;;;;9.70;2.72;;;19.20;99.90;;;;;;5055294;28;20024;-75
2022/07/08 08:37:31;;;;;;;14.30;3.72;;;19.70;99.90;;;;;;5065724;28;20036;-75
2022/07/08 08:40:02;;;;;;;17.25;4.18;;;19.80;99.90;;;;;;5065528;28;20037;-75
2022/07/08 08:42:28;;;;;;;15.15;3.45;;;20.30;99.90;;;;;;5072896;28;20028;-75
2022/07/08 08:44:54;;;;;;;16.35;2.95;;;20.90;99.90;;;;;;5073082;28;20024;-75
2022/07/08 08:47:24;;;;;;;10.68;2.47;;;21.10;99.90;;;;;;5073093;28;20072;-75
2022/07/08 08:49:53;;;;;;;15.40;3.65;;;20.90;99.90;;;;;;5071753;28;20090;-75
2022/07/08 08:52:20;;;;;;;13.50;3.50;;;20.00;99.90;;;;;;5072868;28;20016;-75
2022/07/08 08:54:47;;;;;;;18.70;2.70;;;19.80;99.90;;;;;;5071790;28;20078;-75
2022/07/08 08:57:13;;;;;;;11.95;2.60;;;20.10;99.90;;;;;;5071162;28;20028;-76
2022/07/08 08:59:39;;;;;;;17.52;2.92;;;20.60;99.90;;;;;;5072710;28;20430;-75
2022/07/08 09:02:10;;;;;;;11.48;2.67;;;20.80;99.90;;;;;;5072649;28;20050;-75
2022/07/08 09:04:37;;;;;;;15.53;3.60;;;20.50;99.90;;;;;;5072852;28;20039;-76
2022/07/08 09:07:03;;;;;;;16.95;3.28;;;20.60;99.90;;;;;;5072906;28;20032;-75
2022/07/08 09:09:28;;;;;;;13.15;2.85;;;20.60;99.90;;;;;;5072291;28;20047;-75
2022/07/08 09:11:54;;;;;;;11.98;2.75;;;20.80;99.90;;;;;;5071163;28;20028;-75
2022/07/08 09:14:22;;;;;;;8.45;2.40;;;21.10;99.90;;;;;;5072344;28;20115;-75
2022/07/08 09:17:06;;;;;;;16.92;2.90;;;21.20;99.90;;;;;;5070987;28;20029;-75
2022/07/08 09:19:32;;;;;;;16.60;2.70;;;21.60;99.90;;;;;;5072651;28;20056;-75
2022/07/08 09:21:58;;;;;;;19.75;2.70;;;21.80;99.90;;;;;;5072740;28;20048;-75
2022/07/08 09:24:23;;;;;;;11.18;2.67;;;22.10;99.90;;;;;;5072340;28;20029;-75
2022/07/08 09:26:54;;;;;;;20.05;2.70;;;21.70;99.90;;;;;;5072358;28;20025;-75
2022/07/08 09:29:20;;;;;;;13.07;2.90;;;21.40;99.90;;;;;;5072261;28;20504;-75
2022/07/08 09:31:46;;;;;;;12.23;2.70;;;21.30;99.90;;;;;;5071560;28;20032;-74
2022/07/08 09:34:16;;;;;;;10.57;3.00;;;21.50;99.90;;;;;;5071286;28;20017;-76
2022/07/08 09:36:49;;;;;;;9.55;2.35;;;21.90;99.90;;;;;;5071640;28;20495;-76
2022/07/08 09:39:28;;;;;;;10.55;2.42;;;21.80;99.90;;;;;;5058959;28;20534;-75
2022/07/08 09:41:54;;;;;;;8.13;2.28;;;21.40;99.90;;;;;;5072563;28;20047;-75
2022/07/08 09:44:23;;;;;;;12.30;2.50;;;21.10;99.90;;;;;;5072377;28;20472;-75
2022/07/08 09:46:49;;;;;;;9.82;2.10;;;21.30;99.90;;;;;;5072473;28;20052;-75
2022/07/08 09:49:32;;;;;;;8.05;1.92;;;21.90;99.90;;;;;;5070902;28;20025;-75
2022/07/08 09:51:58;;;;;;;14.95;2.30;;;21.80;99.90;;;;;;5072352;28;20075;-75
2022/07/08 09:54:26;;;;;;;9.10;2.25;;;21.50;99.90;;;;;;5070711;28;20476;-75
2022/07/08 09:57:02;;;;;;;8.88;2.25;;;21.90;99.90;;;;;;5071166;28;20037;-75
2022/07/08 09:59:29;;;;;;;8.13;2.33;;;21.90;99.90;;;;;;5072156;28;20020;-75
2022/07/08 10:01:55;;;;;;;13.57;2.42;;;22.30;99.90;;;;;;5072274;28;20052;-75
2022/07/08 10:04:24;;;;;;;7.97;1.92;;;23.00;99.40;;;;;;5072172;28;20122;-75
2022/07/08 10:06:54;;;;;;;10.63;1.70;;;23.70;98.10;;;;;;5072475;28;20067;-75
2022/07/08 10:09:22;;;;;;;8.85;1.73;;;23.20;98.00;;;;;;5070119;28;20036;-75
2022/07/08 10:11:49;;;;;;;7.13;1.70;;;23.10;98.40;;;;;;5072145;28;20094;-75
2022/07/08 10:14:16;;;;;;;10.02;2.05;;;22.70;98.20;;;;;;5072128;28;20032;-75
2022/07/08 10:16:45;;;;;;;9.32;1.80;;;23.30;98.10;;;;;;5072037;28;20025;-75
2022/07/08 10:19:21;;;;;;;6.07;1.88;;;23.60;96.40;;;;;;5071537;28;20449;-75
2022/07/08 10:21:52;;;;;;;8.30;2.53;;;23.50;96.40;;;;;;5072173;28;20036;-75
2022/07/08 10:24:24;;;;;;;3.83;1.33;;;23.30;96.70;;;;;;5071612;28;20027;-75
2022/07/08 10:26:50;;;;;;;;;;;23.60;96.10;;;;;;5072233;28;20029;-75
2022/07/08 10:29:15;;;;;;;7.82;1.50;;;23.20;96.70;;;;;;5073405;28;20374;-75
2022/07/08 10:31:46;;;;;;;7.43;1.50;;;23.30;96.80;;;;;;5075430;28;20051;-75
2022/07/08 10:34:16;;;;;;;12.77;1.70;;;23.50;96.30;;;;;;5075648;28;20056;-75
2022/07/08 10:36:53;;;;;;;6.88;1.92;;;23.70;96.70;;;;;;5074377;28;20104;-75
2022/07/08 10:39:39;;;;;;;7.80;1.95;;;24.10;94.90;;;;;;5063688;28;20025;-76
2022/07/08 10:42:10;;;;;;;8.80;1.73;;;24.20;95.70;;;;;;5074956;28;20060;-76
2022/07/08 10:44:44;;;;;;;6.20;1.50;;;24.20;95.10;;;;;;5075408;28;20029;-75
2022/07/08 10:47:23;;;;;;;4.65;1.40;;;24.90;95.10;;;;;;5073905;28;20119;-75
2022/07/08 10:49:49;;;;;;;5.78;1.60;;;24.80;94.80;;;;;;5074178;28;20086;-75
2022/07/08 10:52:17;;;;;;;7.18;1.60;;;24.40;93.90;;;;;;5074650;28;20068;-76
2022/07/08 10:54:43;;;;;;;6.43;1.63;;;24.50;94.80;;;;;;5074061;28;20028;-75
2022/07/08 10:57:26;;;;;;;5.40;2.22;;;24.90;94.40;;;;;;5075004;28;20446;-75
2022/07/08 11:00:12;;;;;;;4.28;1.50;;;25.40;94.10;;;;;;5075281;28;20043;-76
2022/07/08 11:02:41;;;;;;;8.05;1.67;;;25.60;94.20;;;;;;5075024;28;20024;-75
2022/07/08 11:05:07;;;;;;;11.57;1.67;;;25.50;93.80;;;;;;5075015;28;20129;-75
2022/07/08 11:07:34;;;;;;;7.43;1.42;;;25.30;94.00;;;;;;5073234;28;20112;-76
2022/07/08 11:10:02;;;;;;;4.00;1.35;;;25.60;93.00;;;;;;5073722;28;20126;-77
2022/07/08 11:12:29;;;;;;;4.85;1.40;;;25.50;93.00;;;;;;5074615;28;20027;-75
2022/07/08 11:14:56;;;;;;;3.65;1.15;;;25.70;93.00;;;;;;5074964;28;20025;-77
2022/07/08 11:17:27;;;;;;;6.97;1.40;;;25.80;92.80;;;;;;5073604;28;20028;-77
2022/07/08 11:19:55;;;;;;;3.03;1.00;;;25.70;92.50;;;;;;5073615;28;20515;-76
2022/07/08 11:22:22;;;;;;;3.47;1.38;;;26.00;93.20;;;;;;5073091;28;20487;-75
2022/07/08 11:24:48;;;;;;;3.40;0.82;;;26.10;92.30;;;;;;5074707;28;20017;-77
2022/07/08 11:27:15;;;;;;;4.30;1.30;;;26.10;91.80;;;;;;5074563;28;20063;-77
2022/07/08 11:29:49;;;;;;;3.67;1.27;;;25.90;92.30;;;;;;5073225;28;20101;-76
2022/07/08 11:32:17;;;;;;;6.63;1.23;;;25.90;92.20;;;;;;5073069;28;20029;-76
2022/07/08 11:34:44;;;;;;;6.85;1.48;;;25.60;93.00;;;;;;5074470;28;20021;-77
2022/07/08 11:37:10;;;;;;;2.28;1.23;;;26.10;93.20;;;;;;5074045;28;20032;-76
2022/07/08 11:39:35;;;;;;;5.75;1.60;;;26.20;92.50;;;;;;5073843;28;20043;-76
2022/07/08 11:42:01;;;;;;;5.22;1.40;;;26.30;92.70;;;;;;5072534;28;20025;-77
2022/07/08 11:44:27;;;;;;;5.65;1.75;;;26.60;93.20;;;;;;5074009;28;20855;-76
2022/07/08 11:46:54;;;;;;;7.03;2.38;;;26.90;92.50;;;;;;5072797;28;20024;-76
2022/07/08 11:49:21;;;;;;;4.07;1.42;;;26.60;92.80;;;;;;5074218;28;20555;-77
2022/07/08 11:51:47;;;;;;;7.15;2.15;;;27.00;92.30;;;;;;5055815;28;20082;-77
2022/07/08 11:54:14;;;;;;;6.57;1.15;;;27.30;92.10;;;;;;5073933;28;20016;-77
2022/07/08 11:56:41;;;;;;;6.00;1.58;;;27.30;91.80;;;;;;5074115;28;20043;-77
2022/07/08 11:59:08;;;;;;;3.80;1.13;;;27.20;91.90;;;;;;5072738;28;20028;-76
2022/07/08 12:01:35;;;;;;;10.35;1.73;;;27.30;91.20;;;;;;5073874;28;20016;-77
2022/07/08 12:04:07;;;;;;;3.55;1.20;;;27.60;91.40;;;;;;5073865;28;20020;-77
2022/07/08 12:06:33;;;;;;;4.47;1.13;;;27.00;90.20;;;;;;5072299;28;20021;-76
2022/07/08 12:09:08;;;;;;;7.85;1.80;;;26.60;91.60;;;;;;5073291;28;20099;-76
2022/07/08 12:11:40;;;;;;;4.65;1.10;;;26.70;92.10;;;;;;5073702;28;20082;-76
2022/07/08 12:14:11;;;;;;;2.47;1.23;;;27.30;91.60;;;;;;5072387;28;20028;-76
2022/07/08 12:16:43;;;;;;;6.32;1.23;;;27.80;91.00;;;;;;5073680;28;20058;-76
2022/07/08 12:19:29;;;;;;;9.43;1.90;;;27.10;91.10;;;;;;5072005;28;20056;-77
2022/07/08 12:21:56;;;;;;;3.83;1.25;;;26.70;91.00;;;;;;5072392;28;20052;-76
2022/07/08 12:24:34;;;;;;;3.05;1.27;;;27.10;92.10;;;;;;5073370;28;20016;-77
2022/07/08 12:27:15;;;;;;;7.20;1.60;;;27.30;91.30;;;;;;5072406;28;20029;-76
2022/07/08 12:29:41;;;;;;;;;;;27.70;92.00;;;;;;5073755;28;20024;-76
2022/07/08 12:32:09;;;;;;;12.15;1.70;;;28.10;91.70;;;;;;5073328;28;20356;-76
2022/07/08 12:34:35;;;;;;;6.13;1.48;;;28.20;91.70;;;;;;5072536;28;20120;-76
2022/07/08 12:37:18;;;;;;;4.05;1.35;;;28.80;91.50;;;;;;5069964;28;20104;-76
2022/07/08 12:39:44;;;;;;;11.85;1.83;;;29.00;90.80;;;;;;5064923;28;20028;-76
2022/07/08 12:42:09;;;;;;;10.15;1.55;;;29.00;90.80;;;;;;5073097;28;20021;-76